sensor_id;sensor_type;location;lat;lon;timestamp;P1;durP1;ratioP1;P2;durP2;ratioP2
62102;SDS011;48077;48.104;11.702;2023-04-25T00:01:43;22.10;;;20.33;;
62102;SDS011;48077;48.104;11.702;2023-04-25T00:07:40;51.85;;;47.47;;
62102;SDS011;48077;48.104;11.702;2023-04-25T00:10:05;44.80;;;41.15;;
62102;SDS011;48077;48.104;11.702;2023-04-25T00:12:29;44.25;;;40.83;;
62102;SDS011;48077;48.104;11.702;2023-04-25T00:14:53;42.47;;;39.13;;
62102;SDS011;48077;48.104;11.702;2023-04-25T00:17:16;41.88;;;38.63;;
62102;SDS011;48077;48.104;11.702;2023-04-25T00:19:39;38.53;;;35.58;;
62102;SDS011;48077;48.104;11.702;2023-04-25T00:22:03;38.60;;;35.65;;
62102;SDS011;48077;48.104;11.702;2023-04-25T00:24:28;39.70;;;36.60;;
62102;SDS011;48077;48.104;11.702;2023-04-25T00:26:51;37.08;;;34.22;;
62102;SDS011;48077;48.104;11.702;2023-04-25T00:29:15;36.55;;;33.60;;
62102;SDS011;48077;48.104;11.702;2023-04-25T00:31:38;32.70;;;30.10;;
62102;SDS011;48077;48.104;11.702;2023-04-25T00:34:02;35.45;;;32.50;;
62102;SDS011;48077;48.104;11.702;2023-04-25T00:36:25;35.60;;;32.88;;
62102;SDS011;48077;48.104;11.702;2023-04-25T00:38:49;33.45;;;30.80;;
62102;SDS011;48077;48.104;11.702;2023-04-25T00:41:12;36.15;;;33.40;;
62102;SDS011;48077;48.104;11.702;2023-04-25T00:43:36;32.85;;;30.42;;
62102;SDS011;48077;48.104;11.702;2023-04-25T00:46:00;30.52;;;28.15;;
62102;SDS011;48077;48.104;11.702;2023-04-25T00:48:24;32.20;;;29.85;;
62102;SDS011;48077;48.104;11.702;2023-04-25T00:50:51;31.63;;;29.17;;
62102;SDS011;48077;48.104;11.702;2023-04-25T00:53:16;34.90;;;32.20;;
62102;SDS011;48077;48.104;11.702;2023-04-25T00:55:39;30.70;;;28.13;;
62102;SDS011;48077;48.104;11.702;2023-04-25T00:58:03;30.15;;;27.75;;
62102;SDS011;48077;48.104;11.702;2023-04-25T01:00:26;29.98;;;27.60;;
62102;SDS011;48077;48.104;11.702;2023-04-25T01:02:50;30.77;;;28.25;;
62102;SDS011;48077;48.104;11.702;2023-04-25T01:05:13;29.63;;;27.38;;
62102;SDS011;48077;48.104;11.702;2023-04-25T01:07:37;29.20;;;26.98;;
62102;SDS011;48077;48.104;11.702;2023-04-25T01:10:00;27.40;;;25.23;;
62102;SDS011;48077;48.104;11.702;2023-04-25T01:12:24;25.27;;;23.42;;
62102;SDS011;48077;48.104;11.702;2023-04-25T01:14:47;26.88;;;24.90;;
62102;SDS011;48077;48.104;11.702;2023-04-25T01:17:11;28.67;;;26.48;;
62102;SDS011;48077;48.104;11.702;2023-04-25T01:19:34;28.15;;;26.10;;
62102;SDS011;48077;48.104;11.702;2023-04-25T01:21:58;28.63;;;26.58;;
62102;SDS011;48077;48.104;11.702;2023-04-25T01:24:21;26.58;;;24.58;;
62102;SDS011;48077;48.104;11.702;2023-04-25T01:26:45;29.38;;;27.17;;
62102;SDS011;48077;48.104;11.702;2023-04-25T01:29:12;29.65;;;27.10;;
62102;SDS011;48077;48.104;11.702;2023-04-25T01:31:36;27.48;;;25.33;;
62102;SDS011;48077;48.104;11.702;2023-04-25T01:34:00;27.85;;;25.70;;
62102;SDS011;48077;48.104;11.702;2023-04-25T01:36:23;28.17;;;26.05;;
62102;SDS011;48077;48.104;11.702;2023-04-25T01:38:50;29.65;;;27.10;;
62102;SDS011;48077;48.104;11.702;2023-04-25T01:41:14;29.23;;;26.88;;
62102;SDS011;48077;48.104;11.702;2023-04-25T01:43:38;29.17;;;26.73;;
62102;SDS011;48077;48.104;11.702;2023-04-25T01:46:01;27.52;;;25.33;;
62102;SDS011;48077;48.104;11.702;2023-04-25T01:48:25;28.60;;;26.23;;
62102;SDS011;48077;48.104;11.702;2023-04-25T01:50:50;27.33;;;25.17;;
62102;SDS011;48077;48.104;11.702;2023-04-25T01:53:14;27.08;;;24.88;;
62102;SDS011;48077;48.104;11.702;2023-04-25T01:55:37;28.23;;;26.00;;
62102;SDS011;48077;48.104;11.702;2023-04-25T01:58:02;28.10;;;25.95;;
62102;SDS011;48077;48.104;11.702;2023-04-25T02:00:26;28.17;;;25.95;;
62102;SDS011;48077;48.104;11.702;2023-04-25T02:02:49;29.25;;;26.80;;
62102;SDS011;48077;48.104;11.702;2023-04-25T02:05:13;30.48;;;27.95;;
62102;SDS011;48077;48.104;11.702;2023-04-25T02:07:37;29.52;;;27.15;;
62102;SDS011;48077;48.104;11.702;2023-04-25T02:10:00;29.48;;;27.17;;
62102;SDS011;48077;48.104;11.702;2023-04-25T02:12:24;28.83;;;26.48;;
62102;SDS011;48077;48.104;11.702;2023-04-25T02:14:50;30.17;;;27.98;;
62102;SDS011;48077;48.104;11.702;2023-04-25T02:17:13;29.73;;;27.45;;
62102;SDS011;48077;48.104;11.702;2023-04-25T02:19:37;32.05;;;29.50;;
62102;SDS011;48077;48.104;11.702;2023-04-25T02:22:00;32.88;;;30.30;;
62102;SDS011;48077;48.104;11.702;2023-04-25T02:24:24;32.75;;;30.30;;
62102;SDS011;48077;48.104;11.702;2023-04-25T02:26:47;33.50;;;30.85;;
62102;SDS011;48077;48.104;11.702;2023-04-25T02:29:12;35.38;;;32.45;;
62102;SDS011;48077;48.104;11.702;2023-04-25T02:31:35;31.02;;;28.70;;
62102;SDS011;48077;48.104;11.702;2023-04-25T02:33:59;31.50;;;28.95;;
62102;SDS011;48077;48.104;11.702;2023-04-25T02:36:22;33.17;;;30.67;;
62102;SDS011;48077;48.104;11.702;2023-04-25T02:38:46;34.08;;;31.42;;
62102;SDS011;48077;48.104;11.702;2023-04-25T02:41:10;36.08;;;33.17;;
62102;SDS011;48077;48.104;11.702;2023-04-25T02:43:33;35.75;;;33.05;;
62102;SDS011;48077;48.104;11.702;2023-04-25T02:45:56;34.63;;;31.92;;
62102;SDS011;48077;48.104;11.702;2023-04-25T02:48:20;34.13;;;31.58;;
62102;SDS011;48077;48.104;11.702;2023-04-25T02:50:43;35.85;;;32.90;;
62102;SDS011;48077;48.104;11.702;2023-04-25T02:53:07;36.42;;;33.20;;
62102;SDS011;48077;48.104;11.702;2023-04-25T02:55:31;34.25;;;31.58;;
62102;SDS011;48077;48.104;11.702;2023-04-25T02:57:54;37.10;;;33.95;;
62102;SDS011;48077;48.104;11.702;2023-04-25T03:00:18;36.08;;;33.10;;
62102;SDS011;48077;48.104;11.702;2023-04-25T03:02:41;33.88;;;31.42;;
62102;SDS011;48077;48.104;11.702;2023-04-25T03:05:05;35.33;;;32.70;;
62102;SDS011;48077;48.104;11.702;2023-04-25T03:07:28;34.38;;;31.73;;
62102;SDS011;48077;48.104;11.702;2023-04-25T03:09:52;33.42;;;30.88;;
62102;SDS011;48077;48.104;11.702;2023-04-25T03:12:15;34.95;;;32.25;;
62102;SDS011;48077;48.104;11.702;2023-04-25T03:14:39;38.47;;;35.40;;
62102;SDS011;48077;48.104;11.702;2023-04-25T03:17:02;37.30;;;34.38;;
62102;SDS011;48077;48.104;11.702;2023-04-25T03:19:25;35.28;;;32.30;;
62102;SDS011;48077;48.104;11.702;2023-04-25T03:21:49;33.30;;;30.67;;
62102;SDS011;48077;48.104;11.702;2023-04-25T03:24:12;34.60;;;31.67;;
62102;SDS011;48077;48.104;11.702;2023-04-25T03:26:36;34.22;;;31.35;;
62102;SDS011;48077;48.104;11.702;2023-04-25T03:28:59;33.95;;;31.23;;
62102;SDS011;48077;48.104;11.702;2023-04-25T03:31:23;32.08;;;29.63;;
62102;SDS011;48077;48.104;11.702;2023-04-25T03:33:46;33.58;;;31.02;;
62102;SDS011;48077;48.104;11.702;2023-04-25T03:36:09;34.70;;;31.95;;
62102;SDS011;48077;48.104;11.702;2023-04-25T03:38:33;32.13;;;29.55;;
62102;SDS011;48077;48.104;11.702;2023-04-25T03:40:56;30.45;;;27.98;;
62102;SDS011;48077;48.104;11.702;2023-04-25T03:43:19;33.60;;;31.00;;
62102;SDS011;48077;48.104;11.702;2023-04-25T03:45:45;31.90;;;29.48;;
62102;SDS011;48077;48.104;11.702;2023-04-25T03:48:08;30.25;;;27.90;;
62102;SDS011;48077;48.104;11.702;2023-04-25T03:50:32;29.40;;;27.02;;
62102;SDS011;48077;48.104;11.702;2023-04-25T03:52:55;31.00;;;28.38;;
62102;SDS011;48077;48.104;11.702;2023-04-25T03:55:19;33.60;;;30.77;;
62102;SDS011;48077;48.104;11.702;2023-04-25T03:57:43;30.27;;;27.80;;
62102;SDS011;48077;48.104;11.702;2023-04-25T04:00:06;29.95;;;27.27;;
62102;SDS011;48077;48.104;11.702;2023-04-25T04:02:32;30.50;;;28.17;;
62102;SDS011;48077;48.104;11.702;2023-04-25T04:04:57;29.33;;;26.48;;
62102;SDS011;48077;48.104;11.702;2023-04-25T04:07:21;30.55;;;28.30;;
62102;SDS011;48077;48.104;11.702;2023-04-25T04:09:44;31.27;;;28.55;;
62102;SDS011;48077;48.104;11.702;2023-04-25T04:12:07;32.58;;;29.90;;
62102;SDS011;48077;48.104;11.702;2023-04-25T04:14:31;32.13;;;29.75;;
62102;SDS011;48077;48.104;11.702;2023-04-25T04:16:54;33.22;;;30.65;;
62102;SDS011;48077;48.104;11.702;2023-04-25T04:19:18;31.70;;;29.15;;
62102;SDS011;48077;48.104;11.702;2023-04-25T04:21:41;31.67;;;28.95;;
62102;SDS011;48077;48.104;11.702;2023-04-25T04:24:04;34.08;;;31.40;;
62102;SDS011;48077;48.104;11.702;2023-04-25T04:26:28;31.98;;;29.23;;
62102;SDS011;48077;48.104;11.702;2023-04-25T04:28:52;30.42;;;28.08;;
62102;SDS011;48077;48.104;11.702;2023-04-25T04:31:17;32.72;;;30.15;;
62102;SDS011;48077;48.104;11.702;2023-04-25T04:33:44;34.63;;;32.05;;
62102;SDS011;48077;48.104;11.702;2023-04-25T04:36:08;30.00;;;27.83;;
62102;SDS011;48077;48.104;11.702;2023-04-25T04:38:31;30.85;;;28.60;;
62102;SDS011;48077;48.104;11.702;2023-04-25T04:40:55;31.00;;;28.35;;
62102;SDS011;48077;48.104;11.702;2023-04-25T04:43:18;32.00;;;29.65;;
62102;SDS011;48077;48.104;11.702;2023-04-25T04:45:42;31.35;;;28.95;;
62102;SDS011;48077;48.104;11.702;2023-04-25T04:48:05;32.90;;;30.17;;
62102;SDS011;48077;48.104;11.702;2023-04-25T04:50:29;30.10;;;27.73;;
62102;SDS011;48077;48.104;11.702;2023-04-25T04:52:55;30.00;;;27.77;;
62102;SDS011;48077;48.104;11.702;2023-04-25T04:55:18;29.38;;;27.08;;
62102;SDS011;48077;48.104;11.702;2023-04-25T04:57:42;31.23;;;28.58;;
62102;SDS011;48077;48.104;11.702;2023-04-25T05:00:05;29.30;;;26.83;;
62102;SDS011;48077;48.104;11.702;2023-04-25T05:02:33;30.10;;;27.90;;
62102;SDS011;48077;48.104;11.702;2023-04-25T05:04:56;29.33;;;27.08;;
62102;SDS011;48077;48.104;11.702;2023-04-25T05:07:20;33.30;;;30.65;;
62102;SDS011;48077;48.104;11.702;2023-04-25T05:09:44;27.90;;;25.95;;
62102;SDS011;48077;48.104;11.702;2023-04-25T05:12:07;28.33;;;26.17;;
62102;SDS011;48077;48.104;11.702;2023-04-25T05:14:31;26.77;;;24.95;;
62102;SDS011;48077;48.104;11.702;2023-04-25T05:16:54;28.40;;;26.45;;
62102;SDS011;48077;48.104;11.702;2023-04-25T05:19:19;28.38;;;26.23;;
62102;SDS011;48077;48.104;11.702;2023-04-25T05:21:43;28.52;;;26.45;;
62102;SDS011;48077;48.104;11.702;2023-04-25T05:24:06;27.08;;;25.10;;
62102;SDS011;48077;48.104;11.702;2023-04-25T05:26:29;25.45;;;23.70;;
62102;SDS011;48077;48.104;11.702;2023-04-25T05:28:53;25.92;;;23.88;;
62102;SDS011;48077;48.104;11.702;2023-04-25T05:31:17;27.33;;;25.27;;
62102;SDS011;48077;48.104;11.702;2023-04-25T05:33:40;26.70;;;24.88;;
62102;SDS011;48077;48.104;11.702;2023-04-25T05:36:04;25.23;;;23.40;;
62102;SDS011;48077;48.104;11.702;2023-04-25T05:38:27;27.05;;;24.70;;
62102;SDS011;48077;48.104;11.702;2023-04-25T05:40:51;28.25;;;26.08;;
62102;SDS011;48077;48.104;11.702;2023-04-25T05:43:15;26.40;;;24.23;;
62102;SDS011;48077;48.104;11.702;2023-04-25T05:45:38;27.02;;;25.17;;
62102;SDS011;48077;48.104;11.702;2023-04-25T05:48:01;25.92;;;24.05;;
62102;SDS011;48077;48.104;11.702;2023-04-25T05:50:25;23.55;;;21.92;;
62102;SDS011;48077;48.104;11.702;2023-04-25T05:52:49;24.52;;;22.75;;
62102;SDS011;48077;48.104;11.702;2023-04-25T05:55:12;23.88;;;22.05;;
62102;SDS011;48077;48.104;11.702;2023-04-25T05:57:36;22.55;;;21.02;;
62102;SDS011;48077;48.104;11.702;2023-04-25T06:00:00;22.95;;;21.17;;
62102;SDS011;48077;48.104;11.702;2023-04-25T06:02:24;22.17;;;20.58;;
62102;SDS011;48077;48.104;11.702;2023-04-25T06:04:50;24.38;;;22.58;;
62102;SDS011;48077;48.104;11.702;2023-04-25T06:07:14;23.17;;;21.48;;
62102;SDS011;48077;48.104;11.702;2023-04-25T06:09:37;22.23;;;20.73;;
62102;SDS011;48077;48.104;11.702;2023-04-25T06:12:02;21.35;;;19.52;;
62102;SDS011;48077;48.104;11.702;2023-04-25T06:14:26;19.38;;;18.00;;
62102;SDS011;48077;48.104;11.702;2023-04-25T06:16:49;19.10;;;17.73;;
62102;SDS011;48077;48.104;11.702;2023-04-25T06:19:15;20.90;;;19.23;;
62102;SDS011;48077;48.104;11.702;2023-04-25T06:21:39;21.38;;;19.60;;
62102;SDS011;48077;48.104;11.702;2023-04-25T06:24:02;20.08;;;18.52;;
62102;SDS011;48077;48.104;11.702;2023-04-25T06:26:26;23.80;;;22.15;;
62102;SDS011;48077;48.104;11.702;2023-04-25T06:28:49;23.25;;;21.45;;
62102;SDS011;48077;48.104;11.702;2023-04-25T06:31:13;24.08;;;22.40;;
62102;SDS011;48077;48.104;11.702;2023-04-25T06:33:36;27.45;;;25.50;;
62102;SDS011;48077;48.104;11.702;2023-04-25T06:35:59;28.70;;;26.35;;
62102;SDS011;48077;48.104;11.702;2023-04-25T06:38:23;28.85;;;26.80;;
62102;SDS011;48077;48.104;11.702;2023-04-25T06:40:49;31.20;;;28.85;;
62102;SDS011;48077;48.104;11.702;2023-04-25T06:43:12;33.17;;;30.17;;
62102;SDS011;48077;48.104;11.702;2023-04-25T06:45:38;30.60;;;28.42;;
62102;SDS011;48077;48.104;11.702;2023-04-25T06:48:01;29.98;;;27.65;;
62102;SDS011;48077;48.104;11.702;2023-04-25T06:50:27;30.63;;;28.42;;
62102;SDS011;48077;48.104;11.702;2023-04-25T06:52:50;30.83;;;28.63;;
62102;SDS011;48077;48.104;11.702;2023-04-25T06:55:14;31.85;;;29.48;;
62102;SDS011;48077;48.104;11.702;2023-04-25T06:57:37;30.20;;;28.05;;
62102;SDS011;48077;48.104;11.702;2023-04-25T07:00:01;30.77;;;28.52;;
62102;SDS011;48077;48.104;11.702;2023-04-25T07:02:24;27.70;;;25.77;;
62102;SDS011;48077;48.104;11.702;2023-04-25T07:04:47;28.90;;;26.90;;
62102;SDS011;48077;48.104;11.702;2023-04-25T07:07:11;30.95;;;28.55;;
62102;SDS011;48077;48.104;11.702;2023-04-25T07:09:34;26.75;;;24.75;;
62102;SDS011;48077;48.104;11.702;2023-04-25T07:11:58;26.35;;;24.50;;
62102;SDS011;48077;48.104;11.702;2023-04-25T07:14:22;26.55;;;24.48;;
62102;SDS011;48077;48.104;11.702;2023-04-25T07:16:45;23.63;;;21.77;;
62102;SDS011;48077;48.104;11.702;2023-04-25T07:19:09;25.55;;;23.40;;
62102;SDS011;48077;48.104;11.702;2023-04-25T07:21:32;21.60;;;20.13;;
62102;SDS011;48077;48.104;11.702;2023-04-25T07:23:56;23.88;;;21.92;;
62102;SDS011;48077;48.104;11.702;2023-04-25T07:26:19;20.88;;;19.27;;
62102;SDS011;48077;48.104;11.702;2023-04-25T07:28:43;20.80;;;19.13;;
62102;SDS011;48077;48.104;11.702;2023-04-25T07:31:06;21.75;;;20.15;;
62102;SDS011;48077;48.104;11.702;2023-04-25T07:33:30;19.35;;;17.92;;
62102;SDS011;48077;48.104;11.702;2023-04-25T07:35:53;19.40;;;17.83;;
62102;SDS011;48077;48.104;11.702;2023-04-25T07:38:17;19.23;;;17.55;;
62102;SDS011;48077;48.104;11.702;2023-04-25T07:40:41;20.67;;;19.10;;
62102;SDS011;48077;48.104;11.702;2023-04-25T07:43:04;18.23;;;16.95;;
62102;SDS011;48077;48.104;11.702;2023-04-25T07:45:28;19.10;;;17.67;;
62102;SDS011;48077;48.104;11.702;2023-04-25T07:47:51;17.50;;;16.10;;
62102;SDS011;48077;48.104;11.702;2023-04-25T07:50:14;19.00;;;17.25;;
62102;SDS011;48077;48.104;11.702;2023-04-25T07:52:38;17.50;;;16.23;;
62102;SDS011;48077;48.104;11.702;2023-04-25T07:55:01;18.30;;;16.75;;
62102;SDS011;48077;48.104;11.702;2023-04-25T07:57:24;17.52;;;16.25;;
62102;SDS011;48077;48.104;11.702;2023-04-25T07:59:48;18.38;;;17.10;;
62102;SDS011;48077;48.104;11.702;2023-04-25T08:02:11;16.13;;;14.93;;
62102;SDS011;48077;48.104;11.702;2023-04-25T08:04:34;16.55;;;15.25;;
62102;SDS011;48077;48.104;11.702;2023-04-25T08:06:58;14.85;;;13.50;;
62102;SDS011;48077;48.104;11.702;2023-04-25T08:09:21;14.73;;;13.52;;
62102;SDS011;48077;48.104;11.702;2023-04-25T08:11:44;14.02;;;12.68;;
62102;SDS011;48077;48.104;11.702;2023-04-25T08:14:08;12.57;;;11.43;;
62102;SDS011;48077;48.104;11.702;2023-04-25T08:16:31;12.02;;;11.10;;
62102;SDS011;48077;48.104;11.702;2023-04-25T08:18:55;14.13;;;12.77;;
62102;SDS011;48077;48.104;11.702;2023-04-25T08:21:18;12.05;;;10.80;;
62102;SDS011;48077;48.104;11.702;2023-04-25T08:23:44;10.18;;;9.40;;
62102;SDS011;48077;48.104;11.702;2023-04-25T08:26:07;10.57;;;9.75;;
62102;SDS011;48077;48.104;11.702;2023-04-25T08:28:31;11.57;;;9.30;;
62102;SDS011;48077;48.104;11.702;2023-04-25T08:30:54;9.30;;;8.35;;
62102;SDS011;48077;48.104;11.702;2023-04-25T08:33:18;9.15;;;8.30;;
62102;SDS011;48077;48.104;11.702;2023-04-25T08:35:41;9.77;;;8.55;;
62102;SDS011;48077;48.104;11.702;2023-04-25T08:38:04;8.57;;;7.88;;
62102;SDS011;48077;48.104;11.702;2023-04-25T08:40:28;7.47;;;6.25;;
62102;SDS011;48077;48.104;11.702;2023-04-25T08:42:53;6.45;;;5.63;;
62102;SDS011;48077;48.104;11.702;2023-04-25T08:45:17;7.25;;;5.65;;
62102;SDS011;48077;48.104;11.702;2023-04-25T08:47:40;5.40;;;4.45;;
62102;SDS011;48077;48.104;11.702;2023-04-25T08:50:06;5.00;;;4.47;;
62102;SDS011;48077;48.104;11.702;2023-04-25T08:52:30;7.07;;;4.38;;
62102;SDS011;48077;48.104;11.702;2023-04-25T08:55:00;7.95;;;4.78;;
62102;SDS011;48077;48.104;11.702;2023-04-25T08:57:25;12.25;;;5.97;;
62102;SDS011;48077;48.104;11.702;2023-04-25T08:59:49;6.88;;;5.00;;
62102;SDS011;48077;48.104;11.702;2023-04-25T09:02:14;8.82;;;4.95;;
62102;SDS011;48077;48.104;11.702;2023-04-25T09:04:39;6.38;;;5.20;;
62102;SDS011;48077;48.104;11.702;2023-04-25T09:07:04;9.63;;;6.53;;
62102;SDS011;48077;48.104;11.702;2023-04-25T09:09:28;4.75;;;4.32;;
62102;SDS011;48077;48.104;11.702;2023-04-25T09:11:53;6.38;;;5.38;;
62102;SDS011;48077;48.104;11.702;2023-04-25T09:14:18;6.72;;;6.13;;
62102;SDS011;48077;48.104;11.702;2023-04-25T09:21:48;5.50;;;5.00;;
62102;SDS011;48077;48.104;11.702;2023-04-25T09:26:57;4.75;;;2.17;;
62102;SDS011;48077;48.104;11.702;2023-04-25T09:29:20;5.55;;;3.03;;
62102;SDS011;48077;48.104;11.702;2023-04-25T09:31:52;2.47;;;2.15;;
62102;SDS011;48077;48.104;11.702;2023-04-25T09:34:16;5.22;;;2.42;;
62102;SDS011;48077;48.104;11.702;2023-04-25T09:36:40;7.45;;;2.25;;
62102;SDS011;48077;48.104;11.702;2023-04-25T09:39:03;4.78;;;2.55;;
62102;SDS011;48077;48.104;11.702;2023-04-25T09:41:38;6.10;;;2.50;;
62102;SDS011;48077;48.104;11.702;2023-04-25T09:44:12;10.90;;;4.03;;
62102;SDS011;48077;48.104;11.702;2023-04-25T09:46:36;5.97;;;2.58;;
62102;SDS011;48077;48.104;11.702;2023-04-25T09:48:59;2.67;;;1.75;;
62102;SDS011;48077;48.104;11.702;2023-04-25T09:51:31;7.50;;;2.50;;
62102;SDS011;48077;48.104;11.702;2023-04-25T09:53:54;3.67;;;2.17;;
62102;SDS011;48077;48.104;11.702;2023-04-25T09:56:18;11.93;;;2.55;;
62102;SDS011;48077;48.104;11.702;2023-04-25T09:58:42;5.15;;;3.05;;
62102;SDS011;48077;48.104;11.702;2023-04-25T10:01:06;9.75;;;3.13;;
62102;SDS011;48077;48.104;11.702;2023-04-25T10:03:32;4.53;;;2.40;;
62102;SDS011;48077;48.104;11.702;2023-04-25T10:06:01;6.32;;;3.30;;
62102;SDS011;48077;48.104;11.702;2023-04-25T10:08:31;4.10;;;1.65;;
62102;SDS011;48077;48.104;11.702;2023-04-25T10:10:56;3.25;;;2.03;;
62102;SDS011;48077;48.104;11.702;2023-04-25T10:13:22;4.57;;;2.35;;
62102;SDS011;48077;48.104;11.702;2023-04-25T10:15:46;6.18;;;2.30;;
62102;SDS011;48077;48.104;11.702;2023-04-25T10:18:29;4.90;;;2.28;;
62102;SDS011;48077;48.104;11.702;2023-04-25T10:20:56;3.33;;;2.60;;
62102;SDS011;48077;48.104;11.702;2023-04-25T10:23:21;4.20;;;1.92;;
62102;SDS011;48077;48.104;11.702;2023-04-25T10:25:44;4.43;;;2.53;;
62102;SDS011;48077;48.104;11.702;2023-04-25T10:28:08;8.38;;;2.95;;
62102;SDS011;48077;48.104;11.702;2023-04-25T10:30:32;4.97;;;1.60;;
62102;SDS011;48077;48.104;11.702;2023-04-25T10:32:55;2.67;;;1.90;;
62102;SDS011;48077;48.104;11.702;2023-04-25T10:35:28;7.10;;;3.28;;
62102;SDS011;48077;48.104;11.702;2023-04-25T10:40:35;6.95;;;2.10;;
62102;SDS011;48077;48.104;11.702;2023-04-25T10:46:00;8.45;;;2.25;;
62102;SDS011;48077;48.104;11.702;2023-04-25T10:48:33;3.65;;;1.70;;
62102;SDS011;48077;48.104;11.702;2023-04-25T10:51:07;3.25;;;1.58;;
62102;SDS011;48077;48.104;11.702;2023-04-25T10:53:32;5.13;;;2.15;;
62102;SDS011;48077;48.104;11.702;2023-04-25T10:55:56;6.43;;;2.35;;
62102;SDS011;48077;48.104;11.702;2023-04-25T10:58:21;4.55;;;2.13;;
62102;SDS011;48077;48.104;11.702;2023-04-25T11:00:45;4.97;;;2.22;;
62102;SDS011;48077;48.104;11.702;2023-04-25T11:03:08;8.88;;;2.65;;
62102;SDS011;48077;48.104;11.702;2023-04-25T11:05:35;4.88;;;2.65;;
62102;SDS011;48077;48.104;11.702;2023-04-25T11:07:59;5.30;;;3.08;;
62102;SDS011;48077;48.104;11.702;2023-04-25T11:10:29;5.85;;;2.85;;
62102;SDS011;48077;48.104;11.702;2023-04-25T11:12:54;5.88;;;4.07;;
62102;SDS011;48077;48.104;11.702;2023-04-25T11:15:18;5.53;;;3.15;;
62102;SDS011;48077;48.104;11.702;2023-04-25T11:17:41;4.53;;;3.25;;
62102;SDS011;48077;48.104;11.702;2023-04-25T11:20:07;6.15;;;3.47;;
62102;SDS011;48077;48.104;11.702;2023-04-25T11:22:34;4.43;;;3.58;;
62102;SDS011;48077;48.104;11.702;2023-04-25T11:24:57;4.50;;;3.85;;
62102;SDS011;48077;48.104;11.702;2023-04-25T11:27:21;6.82;;;4.20;;
62102;SDS011;48077;48.104;11.702;2023-04-25T11:29:44;5.78;;;4.47;;
62102;SDS011;48077;48.104;11.702;2023-04-25T11:32:10;5.18;;;4.20;;
62102;SDS011;48077;48.104;11.702;2023-04-25T11:34:34;7.22;;;4.47;;
62102;SDS011;48077;48.104;11.702;2023-04-25T11:36:58;6.03;;;4.18;;
62102;SDS011;48077;48.104;11.702;2023-04-25T11:39:26;4.53;;;4.05;;
62102;SDS011;48077;48.104;11.702;2023-04-25T11:41:50;4.75;;;3.72;;
62102;SDS011;48077;48.104;11.702;2023-04-25T11:44:17;5.15;;;4.65;;
62102;SDS011;48077;48.104;11.702;2023-04-25T11:46:41;4.97;;;4.57;;
62102;SDS011;48077;48.104;11.702;2023-04-25T11:49:05;7.38;;;4.53;;
62102;SDS011;48077;48.104;11.702;2023-04-25T11:51:28;5.88;;;4.60;;
62102;SDS011;48077;48.104;11.702;2023-04-25T11:53:53;5.20;;;4.72;;
62102;SDS011;48077;48.104;11.702;2023-04-25T11:56:16;5.28;;;4.88;;
62102;SDS011;48077;48.104;11.702;2023-04-25T11:58:55;5.75;;;5.22;;
62102;SDS011;48077;48.104;11.702;2023-04-25T12:01:35;6.95;;;6.30;;
62102;SDS011;48077;48.104;11.702;2023-04-25T12:04:22;7.28;;;6.28;;
62102;SDS011;48077;48.104;11.702;2023-04-25T12:06:45;8.70;;;7.68;;
62102;SDS011;48077;48.104;11.702;2023-04-25T12:09:11;8.88;;;7.47;;
62102;SDS011;48077;48.104;11.702;2023-04-25T12:11:45;6.43;;;5.93;;
62102;SDS011;48077;48.104;11.702;2023-04-25T12:14:09;10.20;;;9.25;;
62102;SDS011;48077;48.104;11.702;2023-04-25T12:16:40;8.57;;;7.75;;
62102;SDS011;48077;48.104;11.702;2023-04-25T12:19:05;6.72;;;6.13;;
62102;SDS011;48077;48.104;11.702;2023-04-25T12:21:28;8.07;;;7.45;;
62102;SDS011;48077;48.104;11.702;2023-04-25T12:23:51;6.93;;;6.35;;
62102;SDS011;48077;48.104;11.702;2023-04-25T12:26:17;8.20;;;7.38;;
62102;SDS011;48077;48.104;11.702;2023-04-25T12:28:44;5.53;;;5.13;;
62102;SDS011;48077;48.104;11.702;2023-04-25T12:31:10;7.13;;;6.10;;
62102;SDS011;48077;48.104;11.702;2023-04-25T12:33:34;7.40;;;6.65;;
62102;SDS011;48077;48.104;11.702;2023-04-25T12:36:01;5.97;;;5.50;;
62102;SDS011;48077;48.104;11.702;2023-04-25T12:38:31;5.97;;;5.50;;
62102;SDS011;48077;48.104;11.702;2023-04-25T12:40:59;4.53;;;4.22;;
62102;SDS011;48077;48.104;11.702;2023-04-25T12:43:23;6.78;;;6.25;;
62102;SDS011;48077;48.104;11.702;2023-04-25T12:45:47;7.00;;;6.38;;
62102;SDS011;48077;48.104;11.702;2023-04-25T12:48:14;6.38;;;5.75;;
62102;SDS011;48077;48.104;11.702;2023-04-25T12:50:38;7.00;;;6.38;;
62102;SDS011;48077;48.104;11.702;2023-04-25T12:53:01;5.95;;;5.55;;
62102;SDS011;48077;48.104;11.702;2023-04-25T12:55:24;5.70;;;5.22;;
62102;SDS011;48077;48.104;11.702;2023-04-25T12:57:50;5.80;;;5.30;;
62102;SDS011;48077;48.104;11.702;2023-04-25T13:00:14;5.05;;;4.60;;
62102;SDS011;48077;48.104;11.702;2023-04-25T13:02:40;5.97;;;4.50;;
62102;SDS011;48077;48.104;11.702;2023-04-25T13:05:04;5.40;;;4.25;;
62102;SDS011;48077;48.104;11.702;2023-04-25T13:07:28;5.50;;;5.10;;
62102;SDS011;48077;48.104;11.702;2023-04-25T13:09:52;6.93;;;6.22;;
62102;SDS011;48077;48.104;11.702;2023-04-25T13:12:15;5.22;;;4.72;;
62102;SDS011;48077;48.104;11.702;2023-04-25T13:14:39;5.63;;;5.00;;
62102;SDS011;48077;48.104;11.702;2023-04-25T13:17:02;8.35;;;6.30;;
62102;SDS011;48077;48.104;11.702;2023-04-25T13:19:25;5.93;;;5.43;;
62102;SDS011;48077;48.104;11.702;2023-04-25T13:21:49;6.35;;;5.30;;
62102;SDS011;48077;48.104;11.702;2023-04-25T13:24:12;7.03;;;6.10;;
62102;SDS011;48077;48.104;11.702;2023-04-25T13:26:36;6.65;;;5.30;;
62102;SDS011;48077;48.104;11.702;2023-04-25T13:28:59;5.82;;;5.38;;
62102;SDS011;48077;48.104;11.702;2023-04-25T13:31:23;7.10;;;6.47;;
62102;SDS011;48077;48.104;11.702;2023-04-25T13:33:47;9.30;;;7.40;;
62102;SDS011;48077;48.104;11.702;2023-04-25T13:36:10;11.55;;;8.23;;
62102;SDS011;48077;48.104;11.702;2023-04-25T13:38:34;9.93;;;8.13;;
62102;SDS011;48077;48.104;11.702;2023-04-25T13:40:57;6.47;;;5.95;;
62102;SDS011;48077;48.104;11.702;2023-04-25T13:43:21;6.63;;;6.10;;
62102;SDS011;48077;48.104;11.702;2023-04-25T13:45:44;7.45;;;6.80;;
62102;SDS011;48077;48.104;11.702;2023-04-25T13:48:08;7.47;;;6.82;;
62102;SDS011;48077;48.104;11.702;2023-04-25T13:50:31;7.53;;;6.97;;
62102;SDS011;48077;48.104;11.702;2023-04-25T13:52:55;9.10;;;8.43;;
62102;SDS011;48077;48.104;11.702;2023-04-25T13:55:18;9.63;;;8.82;;
62102;SDS011;48077;48.104;11.702;2023-04-25T13:57:41;9.35;;;8.63;;
62102;SDS011;48077;48.104;11.702;2023-04-25T14:00:05;8.32;;;7.68;;
62102;SDS011;48077;48.104;11.702;2023-04-25T14:02:31;8.70;;;7.68;;
62102;SDS011;48077;48.104;11.702;2023-04-25T14:04:55;8.30;;;7.70;;
62102;SDS011;48077;48.104;11.702;2023-04-25T14:07:18;8.68;;;8.00;;
62102;SDS011;48077;48.104;11.702;2023-04-25T14:09:43;8.48;;;7.82;;
62102;SDS011;48077;48.104;11.702;2023-04-25T14:12:07;10.50;;;9.73;;
62102;SDS011;48077;48.104;11.702;2023-04-25T14:14:34;10.75;;;9.68;;
62102;SDS011;48077;48.104;11.702;2023-04-25T14:16:57;11.18;;;10.25;;
62102;SDS011;48077;48.104;11.702;2023-04-25T14:19:20;13.02;;;11.93;;